createdAt,value
2019-04-29T00:00:23.741Z,75.50
2019-04-29T00:02:49.803Z,75.03
2019-04-29T00:05:15.965Z,74.83
2019-04-29T00:07:41.929Z,74.98
2019-04-29T00:10:08.497Z,76.01
2019-04-29T00:12:34.842Z,76.52
2019-04-29T00:15:00.841Z,76.46
2019-04-29T00:17:27.096Z,74.78
2019-04-29T00:19:53.693Z,75.17
2019-04-29T00:22:19.681Z,76.35
2019-04-29T00:24:45.589Z,76.69
2019-04-29T00:27:11.617Z,76.88
2019-04-29T00:29:37.514Z,76.07
2019-04-29T00:32:03.851Z,75.83
2019-04-29T00:34:29.748Z,75.82
2019-04-29T00:36:55.829Z,75.24
2019-04-29T00:39:21.938Z,75.64
2019-04-29T00:41:47.869Z,75.70
2019-04-29T00:44:13.855Z,75.62
2019-04-29T00:46:39.800Z,75.83
2019-04-29T00:49:05.704Z,75.29
2019-04-29T00:51:31.675Z,75.33
2019-04-29T00:53:57.580Z,75.08
2019-04-29T00:56:23.557Z,76.63
2019-04-29T00:58:49.477Z,76.02
2019-04-29T01:01:15.499Z,76.55
2019-04-29T01:03:41.531Z,76.84
2019-04-29T01:06:07.606Z,76.31
2019-04-29T01:08:34.798Z,75.75
2019-04-29T01:11:00.845Z,75.69
2019-04-29T01:13:26.944Z,75.83
2019-04-29T01:15:52.896Z,76.03
2019-04-29T01:18:19.045Z,75.75
2019-04-29T01:20:44.944Z,76.67
2019-04-29T01:23:10.891Z,76.29
2019-04-29T01:25:36.954Z,75.68
2019-04-29T01:28:03.150Z,75.45
2019-04-29T01:30:53.628Z,75.13
2019-04-29T01:33:19.536Z,75.63
2019-04-29T01:35:45.435Z,75.58
2019-04-29T01:38:11.437Z,75.58
2019-04-29T01:40:37.400Z,76.14
2019-04-29T01:43:03.341Z,76.01
2019-04-29T01:45:29.301Z,75.90
2019-04-29T01:47:55.235Z,76.43
2019-04-29T01:50:21.128Z,75.39
2019-04-29T01:52:47.249Z,75.38
2019-04-29T01:55:13.281Z,75.52
2019-04-29T01:57:39.229Z,76.28
2019-04-29T02:00:05.684Z,76.18
2019-04-29T02:02:31.824Z,75.91
2019-04-29T02:04:57.905Z,76.15
2019-04-29T02:07:24.026Z,75.83
2019-04-29T02:09:49.926Z,75.37
2019-04-29T02:12:15.860Z,75.39
2019-04-29T02:14:41.879Z,74.98
2019-04-29T02:17:08.005Z,75.12
2019-04-29T02:19:33.900Z,75.31
2019-04-29T02:21:59.976Z,76.01
2019-04-29T02:24:25.904Z,76.15
2019-04-29T02:26:51.853Z,76.14
2019-04-29T02:29:18.184Z,76.10
2019-04-29T02:31:44.199Z,76.53
2019-04-29T02:34:10.163Z,76.25
2019-04-29T02:36:36.583Z,76.28
2019-04-29T02:39:06.072Z,76.37
2019-04-29T02:41:32.903Z,75.69
2019-04-29T02:43:58.810Z,75.24
2019-04-29T02:46:24.832Z,75.51
2019-04-29T02:48:50.724Z,76.19
2019-04-29T02:51:16.723Z,77.20
2019-04-29T02:53:42.614Z,78.63
2019-04-29T02:56:08.541Z,79.41
2019-04-29T02:58:34.591Z,80.78
2019-04-29T03:01:01.872Z,81.76
2019-04-29T03:03:28.949Z,81.43
2019-04-29T03:05:55.159Z,79.81
2019-04-29T03:08:21.186Z,78.69
2019-04-29T03:10:47.275Z,78.25
2019-04-29T03:13:13.458Z,78.20
2019-04-29T03:15:41.478Z,78.05
2019-04-29T03:18:07.647Z,78.34
2019-04-29T03:20:33.578Z,78.30
2019-04-29T03:22:59.790Z,77.96
2019-04-29T03:25:25.729Z,77.87
2019-04-29T03:27:51.671Z,78.35
2019-04-29T03:30:18.006Z,77.88
2019-04-29T03:32:44.126Z,78.32
2019-04-29T03:35:10.219Z,78.93
2019-04-29T03:37:36.337Z,78.04
2019-04-29T03:40:03.559Z,77.53
2019-04-29T03:42:29.652Z,77.81
2019-04-29T03:44:56.892Z,78.01
2019-04-29T03:47:22.860Z,77.42
2019-04-29T03:49:48.841Z,77.66
2019-04-29T03:52:14.766Z,77.49
2019-04-29T03:54:40.731Z,77.58
2019-04-29T03:57:06.657Z,77.60
2019-04-29T03:59:32.548Z,77.66
2019-04-29T04:01:58.650Z,77.80
2019-04-29T04:04:25.797Z,78.06
2019-04-29T04:06:51.699Z,77.53
2019-04-29T04:09:17.691Z,77.97
2019-04-29T04:11:43.753Z,79.75
2019-04-29T04:14:09.701Z,79.79
2019-04-29T04:16:35.795Z,80.32
2019-04-29T04:19:01.699Z,78.98
2019-04-29T04:21:27.766Z,78.09
2019-04-29T04:23:57.957Z,78.22
2019-04-29T04:26:21.692Z,79.10
2019-04-29T04:28:47.744Z,79.44
2019-04-29T04:31:13.640Z,80.38
2019-04-29T04:33:39.643Z,79.16
2019-04-29T04:36:05.685Z,79.40
2019-04-29T04:38:31.626Z,79.42
2019-04-29T04:40:57.674Z,79.04
2019-04-29T04:43:23.670Z,78.88
2019-04-29T04:45:49.570Z,77.46
2019-04-29T04:48:15.670Z,77.51
2019-04-29T04:50:41.595Z,76.85
2019-04-29T04:53:08.301Z,75.91
2019-04-29T04:55:34.324Z,74.93
2019-04-29T04:58:00.678Z,75.19
2019-04-29T05:00:26.681Z,76.55
2019-04-29T05:02:52.756Z,76.19
2019-04-29T05:05:18.687Z,75.65
2019-04-29T05:07:44.581Z,75.00
2019-04-29T05:10:10.646Z,74.50
2019-04-29T05:12:36.898Z,76.58
2019-04-29T05:15:04.349Z,75.94
2019-04-29T05:17:30.895Z,75.49
2019-04-29T05:19:57.378Z,75.24
2019-04-29T05:22:23.538Z,75.46
2019-04-29T05:24:49.475Z,75.75
2019-04-29T05:27:15.379Z,76.85
2019-04-29T05:29:41.544Z,78.69
2019-04-29T05:32:07.502Z,78.63
2019-04-29T05:34:33.551Z,77.23
2019-04-29T05:36:59.483Z,78.59
2019-04-29T05:39:25.410Z,79.93
2019-04-29T05:41:51.411Z,80.50
2019-04-29T05:44:19.105Z,80.45
2019-04-29T05:46:45.298Z,79.79
2019-04-29T05:49:11.292Z,79.68
2019-04-29T05:51:37.245Z,77.81
2019-04-29T05:54:03.471Z,76.03
2019-04-29T05:56:29.597Z,75.27
2019-04-29T05:58:55.516Z,75.76
2019-04-29T06:01:21.624Z,77.67
2019-04-29T06:03:47.573Z,78.10
2019-04-29T06:06:13.684Z,78.67
2019-04-29T06:08:40.630Z,79.68
2019-04-29T06:11:06.660Z,80.60
2019-04-29T06:13:32.781Z,80.96
2019-04-29T06:15:58.738Z,81.55
2019-04-29T06:18:24.717Z,82.37
2019-04-29T06:20:50.659Z,81.52
2019-04-29T06:23:19.056Z,80.57
2019-04-29T06:25:44.411Z,80.86
2019-04-29T06:28:10.450Z,82.18
2019-04-29T06:30:40.281Z,80.15
2019-04-29T06:33:04.678Z,80.67
2019-04-29T06:35:30.770Z,79.54
2019-04-29T06:37:56.718Z,77.54
2019-04-29T06:40:22.715Z,75.38
2019-04-29T06:42:49.333Z,73.77
2019-04-29T06:45:16.793Z,74.07
2019-04-29T06:47:42.768Z,74.29
2019-04-29T06:50:09.108Z,74.26
2019-04-29T06:52:35.007Z,74.28
2019-04-29T06:55:01.088Z,73.85
2019-04-29T06:57:27.136Z,74.15
2019-04-29T06:59:54.802Z,74.21
2019-04-29T07:02:20.999Z,72.78
2019-04-29T07:04:47.261Z,71.48
2019-04-29T07:07:13.253Z,69.16
2019-04-29T07:09:39.281Z,69.84
2019-04-29T07:12:08.109Z,68.51
2019-04-29T07:14:38.147Z,66.66
2019-04-29T07:17:05.523Z,67.83
2019-04-29T07:19:29.152Z,67.20
2019-04-29T07:21:56.623Z,67.56
2019-04-29T07:24:22.626Z,66.07
2019-04-29T07:26:48.710Z,66.82
2019-04-29T07:29:14.832Z,66.04
2019-04-29T07:31:40.733Z,65.98
2019-04-29T07:34:08.533Z,64.25
2019-04-29T07:36:34.744Z,63.82
2019-04-29T07:39:00.769Z,63.55
2019-04-29T07:41:26.800Z,64.30
2019-04-29T07:43:52.720Z,63.43
2019-04-29T07:46:18.616Z,65.09
2019-04-29T07:48:44.654Z,64.20
2019-04-29T07:51:10.557Z,61.95
2019-04-29T07:53:44.811Z,61.77
2019-04-29T07:56:06.342Z,61.78
2019-04-29T07:58:32.300Z,61.20
2019-04-29T08:00:58.355Z,61.31
2019-04-29T08:03:24.335Z,62.03
2019-04-29T08:05:50.704Z,60.60
2019-04-29T08:08:21.291Z,61.21
2019-04-29T08:10:54.075Z,60.30
2019-04-29T08:13:12.835Z,59.34
2019-04-29T08:15:41.486Z,59.34
2019-04-29T08:18:11.038Z,57.17
2019-04-29T08:20:35.479Z,56.51
2019-04-29T08:23:04.135Z,55.82
2019-04-29T08:25:30.219Z,56.45
2019-04-29T08:27:56.220Z,56.91
2019-04-29T08:30:22.169Z,56.88
2019-04-29T08:32:48.272Z,55.31
2019-04-29T08:35:15.227Z,55.14
2019-04-29T08:37:41.284Z,55.22
2019-04-29T08:40:16.050Z,56.42
2019-04-29T08:42:37.331Z,56.42
2019-04-29T08:45:05.439Z,57.61
2019-04-29T08:47:31.856Z,57.39
2019-04-29T08:49:57.950Z,56.50
2019-04-29T08:52:24.031Z,56.98
2019-04-29T08:54:50.740Z,58.12
2019-04-29T08:57:18.985Z,57.88
2019-04-29T08:59:44.907Z,57.83
2019-04-29T09:02:11.491Z,57.02
2019-04-29T09:04:37.774Z,57.65
2019-04-29T09:07:12.354Z,58.25
2019-04-29T09:09:31.544Z,57.48
2019-04-29T09:11:57.581Z,57.49
2019-04-29T09:14:23.531Z,56.72
2019-04-29T09:16:49.539Z,56.53
2019-04-29T09:19:15.521Z,57.93
2019-04-29T09:21:41.497Z,56.82
2019-04-29T09:24:07.571Z,57.21
2019-04-29T09:26:33.495Z,56.74
2019-04-29T09:28:59.755Z,57.44
2019-04-29T09:31:27.302Z,56.99
2019-04-29T09:34:06.032Z,56.79
2019-04-29T09:36:21.044Z,57.67
2019-04-29T09:38:47.007Z,56.91
2019-04-29T09:41:13.065Z,58.34
2019-04-29T09:43:39.129Z,56.93
2019-04-29T09:46:05.092Z,56.36
2019-04-29T09:48:31.922Z,56.75
2019-04-29T09:50:58.164Z,54.84
2019-04-29T09:53:24.162Z,55.05
2019-04-29T09:55:50.135Z,54.92
2019-04-29T09:58:16.219Z,54.92
2019-04-29T10:00:42.853Z,53.69
2019-04-29T10:03:09.176Z,53.27
2019-04-29T10:05:35.281Z,54.57
2019-04-29T10:08:01.326Z,54.52
2019-04-29T10:10:27.483Z,52.91
2019-04-29T10:12:54.257Z,53.06
2019-04-29T10:15:21.219Z,52.74
2019-04-29T10:17:50.836Z,54.09
2019-04-29T10:20:15.224Z,52.34
2019-04-29T10:22:41.227Z,52.70
2019-04-29T10:25:08.189Z,53.06
2019-04-29T10:27:34.518Z,53.09
2019-04-29T10:30:00.458Z,54.09
2019-04-29T10:32:26.465Z,53.32
2019-04-29T10:34:52.487Z,52.54
2019-04-29T10:37:18.439Z,53.18
2019-04-29T10:39:44.433Z,53.38
2019-04-29T10:42:10.349Z,52.91
2019-04-29T10:44:37.561Z,54.24
2019-04-29T10:47:08.543Z,55.85
2019-04-29T10:49:39.119Z,55.85
2019-04-29T10:52:04.631Z,56.47
2019-04-29T10:54:30.732Z,57.82
2019-04-29T10:56:56.928Z,57.86
2019-04-29T10:59:35.282Z,58.14
2019-04-29T11:02:01.739Z,58.86
2019-04-29T11:04:25.499Z,58.64
2019-04-29T11:06:51.825Z,58.20
2019-04-29T11:09:20.594Z,58.99
2019-04-29T11:11:46.608Z,59.08
2019-04-29T11:14:12.551Z,60.32
2019-04-29T11:16:46.602Z,60.75
2019-04-29T11:19:06.494Z,59.40
2019-04-29T11:21:32.618Z,60.61
2019-04-29T11:23:58.930Z,61.13
2019-04-29T11:26:24.838Z,62.68
2019-04-29T11:28:52.256Z,62.65
2019-04-29T11:31:19.269Z,62.81
2019-04-29T11:33:45.409Z,62.95
2019-04-29T11:36:11.619Z,62.06
2019-04-29T11:38:38.684Z,62.85
2019-04-29T11:41:04.593Z,63.22
2019-04-29T11:43:30.494Z,63.29
2019-04-29T11:45:56.721Z,63.76
2019-04-29T11:48:22.792Z,63.77
2019-04-29T11:50:50.191Z,65.66
2019-04-29T11:53:16.753Z,67.95
2019-04-29T11:55:46.253Z,65.57
2019-04-29T11:58:10.781Z,67.55
2019-04-29T12:00:37.122Z,68.15
2019-04-29T12:03:03.397Z,68.50
2019-04-29T12:05:29.624Z,68.82
2019-04-29T12:07:55.853Z,69.67
2019-04-29T12:10:21.933Z,69.64
2019-04-29T12:12:49.086Z,71.02
2019-04-29T12:15:15.473Z,70.33
2019-04-29T12:17:41.430Z,70.24
2019-04-29T12:20:08.011Z,69.44
2019-04-29T12:22:47.168Z,71.09
2019-04-29T12:25:04.369Z,70.85
2019-04-29T12:27:30.439Z,69.93
2019-04-29T12:29:59.334Z,71.28
2019-04-29T12:32:25.163Z,70.88
2019-04-29T12:34:53.114Z,71.02
2019-04-29T12:37:19.004Z,71.63
2019-04-29T12:39:45.177Z,71.48
2019-04-29T12:42:11.138Z,71.97
2019-04-29T12:44:39.883Z,72.04
2019-04-29T12:47:06.284Z,71.75
2019-04-29T12:49:32.980Z,71.49
2019-04-29T12:51:58.920Z,71.93
2019-04-29T12:54:24.894Z,73.19
2019-04-29T12:56:50.867Z,72.16
2019-04-29T12:59:17.177Z,72.45
2019-04-29T13:01:51.291Z,72.81
2019-04-29T13:04:14.785Z,72.21
2019-04-29T13:06:40.395Z,72.77
2019-04-29T13:09:17.185Z,73.65
2019-04-29T13:11:45.460Z,72.87
2019-04-29T13:14:03.439Z,74.27
2019-04-29T13:16:29.354Z,72.80
2019-04-29T13:18:55.804Z,73.01
2019-04-29T13:21:23.467Z,72.60
2019-04-29T13:23:59.415Z,73.46
2019-04-29T13:26:27.766Z,72.48
2019-04-29T13:28:59.062Z,72.72
2019-04-29T13:31:13.319Z,73.42
2019-04-29T13:33:39.360Z,74.12
2019-04-29T13:36:05.584Z,74.33
2019-04-29T13:38:31.565Z,74.40
2019-04-29T13:41:12.899Z,74.35
2019-04-29T13:43:27.020Z,74.20
2019-04-29T13:45:53.257Z,73.97
2019-04-29T13:48:19.353Z,73.85
2019-04-29T13:50:45.564Z,73.91
2019-04-29T13:53:16.463Z,74.41
2019-04-29T13:55:49.342Z,74.02
2019-04-29T13:58:07.626Z,74.25
2019-04-29T14:00:36.443Z,73.64
2019-04-29T14:03:02.389Z,75.52
2019-04-29T14:05:32.476Z,76.62
2019-04-29T14:07:56.356Z,75.97
2019-04-29T14:10:22.403Z,74.30
2019-04-29T14:12:54.348Z,74.99
2019-04-29T14:15:16.494Z,75.42
2019-04-29T14:17:42.463Z,75.09
2019-04-29T14:20:10.949Z,75.61
2019-04-29T14:22:36.459Z,75.43
2019-04-29T14:25:03.501Z,75.28
2019-04-29T14:27:29.502Z,74.64
2019-04-29T14:29:55.550Z,73.88
2019-04-29T14:32:33.334Z,75.24
2019-04-29T14:34:49.549Z,75.67
2019-04-29T14:37:24.412Z,75.25
2019-04-29T14:39:44.154Z,75.24
2019-04-29T14:42:10.146Z,75.47
2019-04-29T14:44:36.052Z,75.83
2019-04-29T14:47:02.363Z,75.80
2019-04-29T14:49:28.434Z,76.14
2019-04-29T14:52:03.535Z,76.52
2019-04-29T14:54:41.705Z,76.37
2019-04-29T14:57:09.280Z,75.22
2019-04-29T14:59:35.610Z,75.36
2019-04-29T15:02:01.756Z,75.21
2019-04-29T15:04:27.774Z,74.67
2019-04-29T15:06:53.726Z,74.62
2019-04-29T15:09:20.149Z,73.91
2019-04-29T15:11:47.342Z,74.55
2019-04-29T15:14:13.818Z,75.01
2019-04-29T15:16:40.652Z,75.48
2019-04-29T15:19:12.845Z,74.66
2019-04-29T15:21:42.608Z,74.53
2019-04-29T15:24:03.348Z,74.35
2019-04-29T15:26:29.402Z,75.55
2019-04-29T15:28:55.741Z,76.03
2019-04-29T15:31:22.180Z,76.05
2019-04-29T15:33:48.899Z,75.33
2019-04-29T15:36:15.033Z,76.32
2019-04-29T15:38:41.152Z,75.85
2019-04-29T15:41:07.172Z,76.06
2019-04-29T15:43:46.437Z,75.98
2019-04-29T15:46:01.685Z,76.17
2019-04-29T15:48:27.800Z,75.76
2019-04-29T15:50:53.822Z,75.42
2019-04-29T15:53:19.843Z,76.10
2019-04-29T15:55:46.076Z,76.49
2019-04-29T15:58:12.110Z,77.19
2019-04-29T16:00:40.511Z,76.64
2019-04-29T16:03:07.142Z,76.53
2019-04-29T16:05:33.235Z,77.60
2019-04-29T16:07:59.260Z,77.04
2019-04-29T16:10:26.612Z,77.01
2019-04-29T16:12:52.750Z,76.42
2019-04-29T16:15:18.966Z,77.68
2019-04-29T16:17:45.192Z,77.34
2019-04-29T16:20:11.420Z,77.87
2019-04-29T16:22:39.264Z,78.52
2019-04-29T16:25:11.101Z,78.38
2019-04-29T16:27:34.162Z,78.08
2019-04-29T16:30:00.635Z,78.16
2019-04-29T16:32:26.651Z,77.75
2019-04-29T16:34:52.685Z,78.88
2019-04-29T16:37:19.546Z,78.95
2019-04-29T16:39:46.981Z,77.97
2019-04-29T16:42:13.106Z,77.66
2019-04-29T16:44:39.431Z,78.98
2019-04-29T16:47:07.377Z,78.04
2019-04-29T16:49:33.828Z,78.05
2019-04-29T16:51:59.983Z,78.21
2019-04-29T16:54:28.518Z,78.42
2019-04-29T16:56:54.149Z,77.41
2019-04-29T16:59:20.273Z,77.69
2019-04-29T17:01:46.396Z,78.14
2019-04-29T17:04:12.391Z,78.32
2019-04-29T17:06:41.660Z,77.97
2019-04-29T17:09:07.640Z,77.52
2019-04-29T17:11:35.655Z,78.79
2019-04-29T17:14:03.401Z,78.37
2019-04-29T17:16:29.805Z,78.26
2019-04-29T17:18:56.135Z,78.28
2019-04-29T17:21:22.259Z,78.36
2019-04-29T17:23:48.280Z,78.59
2019-04-29T17:26:14.317Z,77.91
2019-04-29T17:28:40.637Z,78.67
2019-04-29T17:33:35.233Z,78.50
2019-04-29T17:35:14.780Z,78.33
2019-04-29T17:36:02.060Z,77.69
2019-04-29T17:38:28.173Z,78.24
2019-04-29T17:40:54.173Z,78.71
2019-04-29T17:43:21.241Z,78.10
2019-04-29T17:45:47.502Z,78.32
2019-04-29T17:48:13.604Z,78.09
2019-04-29T17:50:46.276Z,78.16
2019-04-29T17:53:08.745Z,78.40
2019-04-29T17:55:40.262Z,77.87
2019-04-29T17:58:03.088Z,79.65
2019-04-29T18:00:41.341Z,78.92
2019-04-29T18:03:00.863Z,78.81
2019-04-29T18:05:32.984Z,78.02
2019-04-29T18:07:55.552Z,78.60
2019-04-29T18:10:24.342Z,79.13
2019-04-29T18:13:52.632Z,77.32
2019-04-29T18:16:25.745Z,77.86
2019-04-29T18:18:53.221Z,77.64
2019-04-29T18:21:14.987Z,77.57
2019-04-29T18:23:41.324Z,78.78
2019-04-29T18:26:07.653Z,78.58
2019-04-29T18:28:33.712Z,78.44
2019-04-29T18:30:59.738Z,77.30
2019-04-29T18:33:30.032Z,77.09
2019-04-29T18:36:02.116Z,77.80
2019-04-29T18:38:21.636Z,77.38
2019-04-29T18:40:49.501Z,78.00
2019-04-29T18:43:19.235Z,77.52
2019-04-29T18:45:55.208Z,77.32
2019-04-29T18:48:17.128Z,78.95
2019-04-29T18:50:40.039Z,79.84
2019-04-29T18:53:06.952Z,78.93
2019-04-29T18:55:35.233Z,79.11
2019-04-29T18:58:01.183Z,78.95
2019-04-29T19:00:27.507Z,79.34
2019-04-29T19:02:58.369Z,79.48
2019-04-29T19:05:27.790Z,78.56
2019-04-29T19:07:55.178Z,79.08
2019-04-29T19:10:19.038Z,79.22
2019-04-29T19:12:57.169Z,79.08
2019-04-29T19:15:15.075Z,78.95
2019-04-29T19:17:41.344Z,79.15
2019-04-29T19:20:08.715Z,79.04
2019-04-29T19:22:36.067Z,78.94
2019-04-29T19:25:10.484Z,79.93
2019-04-29T19:27:37.153Z,79.96
2019-04-29T19:30:05.343Z,79.57
2019-04-29T19:32:31.811Z,78.94
2019-04-29T19:34:58.543Z,79.79
2019-04-29T19:37:25.667Z,79.73
2019-04-29T19:39:58.293Z,78.79
2019-04-29T19:42:29.137Z,78.92
2019-04-29T19:44:48.887Z,79.16
2019-04-29T19:47:16.632Z,78.87
2019-04-29T19:49:44.667Z,79.02
2019-04-29T19:52:11.053Z,80.15
2019-04-29T19:54:37.326Z,80.11
2019-04-29T19:57:07.248Z,79.69
2019-04-29T19:59:31.986Z,79.34
2019-04-29T20:02:05.725Z,79.73
2019-04-29T20:04:26.817Z,79.60
2019-04-29T20:06:58.396Z,78.19
2019-04-29T20:09:22.997Z,79.97
2019-04-29T20:11:49.662Z,79.69
2019-04-29T20:14:21.076Z,79.10
2019-04-29T20:16:53.549Z,79.92
2019-04-29T20:19:18.033Z,81.19
2019-04-29T20:21:40.162Z,80.44
2019-04-29T20:24:09.369Z,79.98
2019-04-29T20:26:35.958Z,80.23
2019-04-29T20:29:02.593Z,80.48
2019-04-29T20:31:29.081Z,81.24
2019-04-29T20:33:56.012Z,80.01
2019-04-29T20:36:37.422Z,80.42
2019-04-29T20:38:51.818Z,80.93
2019-04-29T20:41:36.792Z,80.08
2019-04-29T20:43:46.431Z,80.73
2019-04-29T20:46:12.946Z,81.25
2019-04-29T20:48:40.585Z,81.44
2019-04-29T20:51:13.179Z,81.38
2019-04-29T20:53:36.080Z,81.45
2019-04-29T20:56:10.312Z,81.36
2019-04-29T20:58:32.874Z,80.50
2019-04-29T21:01:02.991Z,81.16
2019-04-29T21:03:32.096Z,80.93
2019-04-29T21:06:02.347Z,81.48
2019-04-29T21:08:25.746Z,81.29
2019-04-29T21:10:52.309Z,80.80
2019-04-29T21:13:20.272Z,80.23
2019-04-29T21:15:52.193Z,80.75
2019-04-29T21:18:14.522Z,81.14
2019-04-29T21:20:41.851Z,81.06
2019-04-29T21:23:07.804Z,81.72
2019-04-29T21:25:35.631Z,81.25
2019-04-29T21:28:02.413Z,80.62
2019-04-29T21:30:35.500Z,80.53
2019-04-29T21:32:56.554Z,80.93
2019-04-29T21:35:22.674Z,80.65
2019-04-29T21:37:48.798Z,80.65
2019-04-29T21:40:18.751Z,80.50
2019-04-29T21:42:47.131Z,79.64
2019-04-29T21:45:13.372Z,79.49
2019-04-29T21:47:45.639Z,78.20
2019-04-29T21:50:09.151Z,78.48
2019-04-29T21:52:36.569Z,79.19
2019-04-29T21:55:05.255Z,78.43
2019-04-29T21:57:31.366Z,77.63
2019-04-29T21:59:57.750Z,77.13
2019-04-29T22:02:25.918Z,77.14
2019-04-29T22:04:51.841Z,77.44
2019-04-29T22:07:17.919Z,77.99
2019-04-29T22:09:47.205Z,77.90
2019-04-29T22:12:14.217Z,77.55
2019-04-29T22:14:48.818Z,77.74
2019-04-29T22:17:09.428Z,77.50
2019-04-29T22:19:35.657Z,77.01
2019-04-29T22:22:01.987Z,77.55
2019-04-29T22:24:28.316Z,77.39
2019-04-29T22:26:56.500Z,78.21
2019-04-29T22:29:24.765Z,78.39
2019-04-29T22:31:51.093Z,78.58
2019-04-29T22:34:19.312Z,79.95
2019-04-29T22:36:48.188Z,79.08
2019-04-29T22:39:15.845Z,79.24
2019-04-29T22:41:41.943Z,78.85
2019-04-29T22:44:08.274Z,78.74
2019-04-29T22:46:35.675Z,78.85
2019-04-29T22:49:05.724Z,79.42
2019-04-29T22:51:31.784Z,78.90
2019-04-29T22:53:57.894Z,79.66
2019-04-29T22:56:27.615Z,79.90
2019-04-29T22:58:52.094Z,79.50
2019-04-29T23:01:18.418Z,80.00
2019-04-29T23:03:45.143Z,79.98
2019-04-29T23:06:12.511Z,79.34
2019-04-29T23:08:38.736Z,79.14
2019-04-29T23:11:05.377Z,79.95
2019-04-29T23:13:32.690Z,80.17
2019-04-29T23:16:02.158Z,80.09
2019-04-29T23:18:29.114Z,80.23
2019-04-29T23:20:55.369Z,80.28
2019-04-29T23:23:22.658Z,79.96
2019-04-29T23:25:49.808Z,79.95
2019-04-29T23:28:16.035Z,80.50
2019-04-29T23:30:43.490Z,80.93
2019-04-29T23:33:09.592Z,80.92
2019-04-29T23:35:39.720Z,81.61
2019-04-29T23:38:09.361Z,81.10
2019-04-29T23:40:33.772Z,81.67
2019-04-29T23:42:59.767Z,80.22
2019-04-29T23:45:25.830Z,79.73
2019-04-29T23:47:52.098Z,80.27
2019-04-29T23:50:20.083Z,80.42
2019-04-29T23:52:50.299Z,80.43
2019-04-29T23:55:15.992Z,80.95
2019-04-29T23:57:43.358Z,80.80
